sensor_id;sensor_type;location;lat;lon;timestamp;pressure;altitude;pressure_sealevel;temperature;humidity
79067;BME280;68470;50.224;14.348;2023-04-24T00:01:41;98381.03;;;7.97;96.58
79067;BME280;68470;50.224;14.348;2023-04-24T00:04:08;98384.31;;;7.99;96.29
79067;BME280;68470;50.224;14.348;2023-04-24T00:06:36;98380.38;;;7.54;95.95
79067;BME280;68470;50.224;14.348;2023-04-24T00:09:03;98380.56;;;7.22;96.48
79067;BME280;68470;50.224;14.348;2023-04-24T00:11:34;98376.16;;;7.11;96.82
79067;BME280;68470;50.224;14.348;2023-04-24T00:14:00;98363.53;;;7.05;97.18
79067;BME280;68470;50.224;14.348;2023-04-24T00:16:26;98366.59;;;7.18;97.48
79067;BME280;68470;50.224;14.348;2023-04-24T00:18:52;98392.16;;;7.49;97.48
79067;BME280;68470;50.224;14.348;2023-04-24T00:21:21;98371.72;;;8.43;96.41
79067;BME280;68470;50.224;14.348;2023-04-24T00:23:51;98361.84;;;8.37;94.69
79067;BME280;68470;50.224;14.348;2023-04-24T00:26:18;98361.56;;;8.03;95.34
79067;BME280;68470;50.224;14.348;2023-04-24T00:28:44;98369.78;;;8.08;95.85
79067;BME280;68470;50.224;14.348;2023-04-24T00:31:11;98340.72;;;7.87;95.60
79067;BME280;68470;50.224;14.348;2023-04-24T00:33:37;98364.84;;;8.05;95.88
79067;BME280;68470;50.224;14.348;2023-04-24T00:36:03;98345.38;;;8.32;95.91
79067;BME280;68470;50.224;14.348;2023-04-24T00:38:29;98347.88;;;8.44;94.92
79067;BME280;68470;50.224;14.348;2023-04-24T00:40:56;98330.59;;;8.43;94.71
79067;BME280;68470;50.224;14.348;2023-04-24T00:43:22;98323.72;;;8.51;94.54
79067;BME280;68470;50.224;14.348;2023-04-24T00:45:50;98343.72;;;8.31;94.59
79067;BME280;68470;50.224;14.348;2023-04-24T00:48:16;98321.53;;;8.02;95.50
79067;BME280;68470;50.224;14.348;2023-04-24T00:50:42;98336.91;;;8.44;94.74
79067;BME280;68470;50.224;14.348;2023-04-24T00:53:09;98318.78;;;8.48;94.16
79067;BME280;68470;50.224;14.348;2023-04-24T00:55:35;98330.00;;;8.52;94.46
79067;BME280;68470;50.224;14.348;2023-04-24T00:58:03;98346.16;;;8.73;93.25
79067;BME280;68470;50.224;14.348;2023-04-24T01:00:28;98341.19;;;8.81;93.08
79067;BME280;68470;50.224;14.348;2023-04-24T01:02:57;98300.16;;;8.45;93.46
79067;BME280;68470;50.224;14.348;2023-04-24T01:05:24;98328.63;;;8.54;93.45
79067;BME280;68470;50.224;14.348;2023-04-24T01:07:51;98326.16;;;8.53;93.62
79067;BME280;68470;50.224;14.348;2023-04-24T01:10:20;98333.84;;;8.51;93.67
79067;BME280;68470;50.224;14.348;2023-04-24T01:12:53;98300.72;;;8.42;93.01
79067;BME280;68470;50.224;14.348;2023-04-24T01:15:25;98310.81;;;8.52;92.44
79067;BME280;68470;50.224;14.348;2023-04-24T01:17:59;98323.47;;;8.42;93.16
79067;BME280;68470;50.224;14.348;2023-04-24T01:23:08;98306.22;;;7.96;94.36
79067;BME280;68470;50.224;14.348;2023-04-24T01:25:42;98298.53;;;7.88;94.70
79067;BME280;68470;50.224;14.348;2023-04-24T01:28:09;98308.41;;;7.84;94.25
79067;BME280;68470;50.224;14.348;2023-04-24T01:30:56;98301.00;;;7.64;95.34
79067;BME280;68470;50.224;14.348;2023-04-24T01:33:22;98319.88;;;7.71;95.63
79067;BME280;68470;50.224;14.348;2023-04-24T01:38:24;98327.28;;;7.65;96.31
79067;BME280;68470;50.224;14.348;2023-04-24T01:43:25;98335.22;;;7.67;96.61
79067;BME280;68470;50.224;14.348;2023-04-24T01:45:52;98348.13;;;7.76;96.97
79067;BME280;68470;50.224;14.348;2023-04-24T01:48:18;98336.34;;;7.76;96.52
79067;BME280;68470;50.224;14.348;2023-04-24T01:50:44;98342.94;;;7.75;96.12
79067;BME280;68470;50.224;14.348;2023-04-24T01:53:09;98336.34;;;7.61;96.58
79067;BME280;68470;50.224;14.348;2023-04-24T01:55:35;98325.66;;;7.59;97.03
79067;BME280;68470;50.224;14.348;2023-04-24T01:58:01;98342.38;;;7.88;96.51
79067;BME280;68470;50.224;14.348;2023-04-24T02:00:27;98334.13;;;8.54;93.91
79067;BME280;68470;50.224;14.348;2023-04-24T02:02:53;98330.53;;;8.69;92.63
79067;BME280;68470;50.224;14.348;2023-04-24T02:05:19;98344.59;;;9.22;89.79
79067;BME280;68470;50.224;14.348;2023-04-24T02:07:45;98323.41;;;9.32;89.31
79067;BME280;68470;50.224;14.348;2023-04-24T02:10:11;98330.31;;;9.25;89.16
79067;BME280;68470;50.224;14.348;2023-04-24T02:12:37;98321.00;;;9.16;91.03
79067;BME280;68470;50.224;14.348;2023-04-24T02:15:03;98332.53;;;9.18;90.10
79067;BME280;68470;50.224;14.348;2023-04-24T02:17:29;98320.78;;;9.02;91.23
79067;BME280;68470;50.224;14.348;2023-04-24T02:19:56;98325.44;;;9.07;91.77
79067;BME280;68470;50.224;14.348;2023-04-24T02:22:21;98315.91;;;8.89;91.76
79067;BME280;68470;50.224;14.348;2023-04-24T02:24:47;98311.34;;;8.64;93.56
79067;BME280;68470;50.224;14.348;2023-04-24T02:27:14;98307.03;;;8.42;95.16
79067;BME280;68470;50.224;14.348;2023-04-24T02:29:40;98307.00;;;8.48;95.43
79067;BME280;68470;50.224;14.348;2023-04-24T02:32:06;98309.16;;;8.56;95.51
79067;BME280;68470;50.224;14.348;2023-04-24T02:34:32;98298.13;;;8.71;94.12
79067;BME280;68470;50.224;14.348;2023-04-24T02:36:57;98307.69;;;8.84;93.99
79067;BME280;68470;50.224;14.348;2023-04-24T02:39:23;98310.38;;;8.99;93.04
79067;BME280;68470;50.224;14.348;2023-04-24T02:41:49;98301.28;;;9.09;93.05
79067;BME280;68470;50.224;14.348;2023-04-24T02:44:15;98288.00;;;8.77;93.78
79067;BME280;68470;50.224;14.348;2023-04-24T02:46:40;98299.56;;;8.53;94.93
79067;BME280;68470;50.224;14.348;2023-04-24T02:49:07;98307.25;;;8.51;96.23
79067;BME280;68470;50.224;14.348;2023-04-24T02:51:33;98301.13;;;8.85;95.11
79067;BME280;68470;50.224;14.348;2023-04-24T02:53:59;98303.31;;;9.37;91.03
79067;BME280;68470;50.224;14.348;2023-04-24T02:56:25;98309.34;;;9.39;90.54
79067;BME280;68470;50.224;14.348;2023-04-24T02:58:51;98316.25;;;9.31;91.72
79067;BME280;68470;50.224;14.348;2023-04-24T03:01:16;98305.81;;;9.33;91.19
79067;BME280;68470;50.224;14.348;2023-04-24T03:03:43;98320.63;;;9.38;91.39
79067;BME280;68470;50.224;14.348;2023-04-24T03:06:09;98299.78;;;9.31;91.97
79067;BME280;68470;50.224;14.348;2023-04-24T03:08:35;98320.16;;;9.25;93.51
79067;BME280;68470;50.224;14.348;2023-04-24T03:11:01;98324.63;;;9.11;94.16
79067;BME280;68470;50.224;14.348;2023-04-24T03:13:27;98320.19;;;9.15;93.59
79067;BME280;68470;50.224;14.348;2023-04-24T03:15:52;98324.03;;;9.14;94.06
79067;BME280;68470;50.224;14.348;2023-04-24T03:18:19;98313.59;;;9.16;93.82
79067;BME280;68470;50.224;14.348;2023-04-24T03:20:46;98320.72;;;9.17;93.97
79067;BME280;68470;50.224;14.348;2023-04-24T03:23:12;98313.09;;;9.09;94.30
79067;BME280;68470;50.224;14.348;2023-04-24T03:25:38;98315.25;;;9.17;94.62
79067;BME280;68470;50.224;14.348;2023-04-24T03:28:04;98316.59;;;9.25;94.24
79067;BME280;68470;50.224;14.348;2023-04-24T03:30:30;98315.34;;;8.97;94.97
79067;BME280;68470;50.224;14.348;2023-04-24T03:32:56;98301.16;;;8.74;95.79
79067;BME280;68470;50.224;14.348;2023-04-24T03:35:21;98318.66;;;8.94;95.54
79067;BME280;68470;50.224;14.348;2023-04-24T03:37:47;98313.97;;;8.94;95.74
79067;BME280;68470;50.224;14.348;2023-04-24T03:40:13;98323.84;;;8.95;96.03
79067;BME280;68470;50.224;14.348;2023-04-24T03:42:39;98316.72;;;8.89;96.29
79067;BME280;68470;50.224;14.348;2023-04-24T03:45:05;98320.09;;;8.66;96.73
79067;BME280;68470;50.224;14.348;2023-04-24T03:47:32;98325.91;;;8.49;97.11
79067;BME280;68470;50.224;14.348;2023-04-24T03:49:57;98322.31;;;8.54;96.96
79067;BME280;68470;50.224;14.348;2023-04-24T03:52:23;98330.81;;;8.62;97.28
79067;BME280;68470;50.224;14.348;2023-04-24T03:54:49;98321.53;;;8.48;97.45
79067;BME280;68470;50.224;14.348;2023-04-24T03:57:15;98328.66;;;8.59;97.31
79067;BME280;68470;50.224;14.348;2023-04-24T03:59:40;98329.44;;;8.55;97.54
79067;BME280;68470;50.224;14.348;2023-04-24T04:02:06;98318.72;;;8.68;97.15
79067;BME280;68470;50.224;14.348;2023-04-24T04:04:32;98331.06;;;8.71;96.74
79067;BME280;68470;50.224;14.348;2023-04-24T04:06:58;98329.19;;;8.61;97.01
79067;BME280;68470;50.224;14.348;2023-04-24T04:09:26;98333.84;;;8.61;97.67
79067;BME280;68470;50.224;14.348;2023-04-24T04:11:52;98307.25;;;8.51;97.84
79067;BME280;68470;50.224;14.348;2023-04-24T04:14:18;98316.25;;;8.77;97.99
79067;BME280;68470;50.224;14.348;2023-04-24T04:16:44;98330.16;;;8.96;97.18
79067;BME280;68470;50.224;14.348;2023-04-24T04:19:09;98327.16;;;8.92;96.87
79067;BME280;68470;50.224;14.348;2023-04-24T04:21:35;98327.41;;;8.96;96.63
79067;BME280;68470;50.224;14.348;2023-04-24T04:24:01;98318.63;;;8.99;96.05
79067;BME280;68470;50.224;14.348;2023-04-24T04:26:27;98325.00;;;8.84;96.15
79067;BME280;68470;50.224;14.348;2023-04-24T04:28:52;98326.97;;;8.68;96.55
79067;BME280;68470;50.224;14.348;2023-04-24T04:31:21;98338.25;;;8.57;97.25
79067;BME280;68470;50.224;14.348;2023-04-24T04:33:47;98334.94;;;8.65;96.54
79067;BME280;68470;50.224;14.348;2023-04-24T04:36:13;98342.84;;;8.77;96.65
79067;BME280;68470;50.224;14.348;2023-04-24T04:38:38;98339.00;;;8.78;96.90
79067;BME280;68470;50.224;14.348;2023-04-24T04:41:06;98343.63;;;8.87;97.10
79067;BME280;68470;50.224;14.348;2023-04-24T04:43:32;98353.72;;;9.02;96.98
79067;BME280;68470;50.224;14.348;2023-04-24T04:45:59;98363.03;;;9.11;96.43
79067;BME280;68470;50.224;14.348;2023-04-24T04:48:27;98354.47;;;9.23;96.06
79067;BME280;68470;50.224;14.348;2023-04-24T04:50:53;98354.47;;;9.28;95.47
79067;BME280;68470;50.224;14.348;2023-04-24T04:53:18;98365.94;;;9.35;95.26
79067;BME280;68470;50.224;14.348;2023-04-24T04:55:44;98359.59;;;9.40;94.66
79067;BME280;68470;50.224;14.348;2023-04-24T04:58:11;98365.09;;;9.45;94.45
79067;BME280;68470;50.224;14.348;2023-04-24T05:00:37;98366.69;;;9.51;93.79
79067;BME280;68470;50.224;14.348;2023-04-24T05:03:03;98364.47;;;9.53;94.12
79067;BME280;68470;50.224;14.348;2023-04-24T05:05:29;98372.16;;;9.56;93.77
79067;BME280;68470;50.224;14.348;2023-04-24T05:07:54;98371.59;;;9.59;93.84
79067;BME280;68470;50.224;14.348;2023-04-24T05:10:21;98373.25;;;9.55;94.31
79067;BME280;68470;50.224;14.348;2023-04-24T05:12:46;98387.00;;;9.55;94.57
79067;BME280;68470;50.224;14.348;2023-04-24T05:15:12;98382.88;;;9.52;94.60
79067;BME280;68470;50.224;14.348;2023-04-24T05:17:38;98390.84;;;9.59;93.99
79067;BME280;68470;50.224;14.348;2023-04-24T05:20:06;98395.72;;;9.67;94.21
79067;BME280;68470;50.224;14.348;2023-04-24T05:22:32;98387.72;;;9.71;94.08
79067;BME280;68470;50.224;14.348;2023-04-24T05:24:58;98386.38;;;9.68;94.22
79067;BME280;68470;50.224;14.348;2023-04-24T05:27:24;98384.47;;;9.63;94.11
79067;BME280;68470;50.224;14.348;2023-04-24T05:29:50;98381.72;;;9.63;94.10
79067;BME280;68470;50.224;14.348;2023-04-24T05:32:15;98381.72;;;9.63;94.28
79067;BME280;68470;50.224;14.348;2023-04-24T05:34:41;98384.16;;;9.70;93.98
79067;BME280;68470;50.224;14.348;2023-04-24T05:37:07;98369.38;;;9.61;93.75
79067;BME280;68470;50.224;14.348;2023-04-24T05:39:35;98382.81;;;9.68;93.44
79067;BME280;68470;50.224;14.348;2023-04-24T05:42:01;98386.09;;;9.70;94.20
79067;BME280;68470;50.224;14.348;2023-04-24T05:44:28;98396.78;;;9.71;94.05
79067;BME280;68470;50.224;14.348;2023-04-24T05:46:54;98390.47;;;9.76;93.26
79067;BME280;68470;50.224;14.348;2023-04-24T05:49:21;98394.53;;;9.83;92.52
79067;BME280;68470;50.224;14.348;2023-04-24T05:51:47;98396.94;;;9.95;91.97
79067;BME280;68470;50.224;14.348;2023-04-24T05:54:13;98396.31;;;10.03;91.83
79067;BME280;68470;50.224;14.348;2023-04-24T05:56:38;98390.22;;;10.11;92.78
79067;BME280;68470;50.224;14.348;2023-04-24T05:59:04;98403.44;;;10.09;92.84
79067;BME280;68470;50.224;14.348;2023-04-24T06:01:30;98403.72;;;10.03;92.40
79067;BME280;68470;50.224;14.348;2023-04-24T06:03:57;98403.19;;;10.01;93.13
79067;BME280;68470;50.224;14.348;2023-04-24T06:06:23;98414.72;;;10.08;92.88
79067;BME280;68470;50.224;14.348;2023-04-24T06:08:49;98411.59;;;10.24;90.97
79067;BME280;68470;50.224;14.348;2023-04-24T06:11:15;98415.13;;;10.30;91.36
79067;BME280;68470;50.224;14.348;2023-04-24T06:13:41;98413.97;;;10.36;90.82
79067;BME280;68470;50.224;14.348;2023-04-24T06:16:07;98414.75;;;10.42;91.74
79067;BME280;68470;50.224;14.348;2023-04-24T06:18:33;98410.09;;;10.37;91.01
79067;BME280;68470;50.224;14.348;2023-04-24T06:20:59;98426.84;;;10.41;90.97
79067;BME280;68470;50.224;14.348;2023-04-24T06:23:25;98424.72;;;10.33;91.22
79067;BME280;68470;50.224;14.348;2023-04-24T06:25:50;98423.91;;;10.32;92.07
79067;BME280;68470;50.224;14.348;2023-04-24T06:28:16;98433.50;;;10.35;91.47
79067;BME280;68470;50.224;14.348;2023-04-24T06:30:42;98422.31;;;10.26;92.14
79067;BME280;68470;50.224;14.348;2023-04-24T06:33:09;98427.25;;;10.29;92.25
79067;BME280;68470;50.224;14.348;2023-04-24T06:35:36;98435.16;;;10.36;91.99
79067;BME280;68470;50.224;14.348;2023-04-24T06:38:02;98444.75;;;10.38;92.31
79067;BME280;68470;50.224;14.348;2023-04-24T06:40:27;98441.41;;;10.46;91.89
79067;BME280;68470;50.224;14.348;2023-04-24T06:42:53;98439.19;;;10.48;91.69
79067;BME280;68470;50.224;14.348;2023-04-24T06:45:19;98438.00;;;10.54;90.88
79067;BME280;68470;50.224;14.348;2023-04-24T06:47:45;98455.63;;;10.59;90.50
79067;BME280;68470;50.224;14.348;2023-04-24T06:50:10;98439.28;;;10.67;90.90
79067;BME280;68470;50.224;14.348;2023-04-24T06:52:37;98447.50;;;10.72;90.24
79067;BME280;68470;50.224;14.348;2023-04-24T06:55:03;98437.28;;;10.78;89.98
79067;BME280;68470;50.224;14.348;2023-04-24T06:57:29;98449.81;;;10.89;89.98
79067;BME280;68470;50.224;14.348;2023-04-24T06:59:55;98446.75;;;10.96;88.62
79067;BME280;68470;50.224;14.348;2023-04-24T07:02:22;98450.25;;;11.01;88.78
79067;BME280;68470;50.224;14.348;2023-04-24T07:04:47;98452.25;;;11.20;89.60
79067;BME280;68470;50.224;14.348;2023-04-24T07:07:13;98443.66;;;11.26;89.08
79067;BME280;68470;50.224;14.348;2023-04-24T07:09:40;98461.19;;;11.35;87.92
79067;BME280;68470;50.224;14.348;2023-04-24T07:12:10;98458.06;;;11.42;87.83
79067;BME280;68470;50.224;14.348;2023-04-24T07:14:36;98449.59;;;11.57;87.61
79067;BME280;68470;50.224;14.348;2023-04-24T07:17:03;98459.56;;;11.77;89.29
79067;BME280;68470;50.224;14.348;2023-04-24T07:19:29;98457.41;;;11.98;87.48
79067;BME280;68470;50.224;14.348;2023-04-24T07:21:55;98454.16;;;11.91;85.37
79067;BME280;68470;50.224;14.348;2023-04-24T07:24:20;98444.69;;;11.54;85.61
79067;BME280;68470;50.224;14.348;2023-04-24T07:26:46;98453.56;;;11.51;86.95
79067;BME280;68470;50.224;14.348;2023-04-24T07:29:12;98456.41;;;11.41;87.07
79067;BME280;68470;50.224;14.348;2023-04-24T07:31:39;98447.63;;;11.39;87.59
79067;BME280;68470;50.224;14.348;2023-04-24T07:34:06;98453.66;;;11.41;86.49
79067;BME280;68470;50.224;14.348;2023-04-24T07:36:32;98440.66;;;11.23;86.48
79067;BME280;68470;50.224;14.348;2023-04-24T07:38:58;98438.63;;;11.09;87.26
79067;BME280;68470;50.224;14.348;2023-04-24T07:41:24;98465.22;;;11.19;88.60
79067;BME280;68470;50.224;14.348;2023-04-24T07:43:49;98472.03;;;11.27;88.44
79067;BME280;68470;50.224;14.348;2023-04-24T07:46:16;98458.25;;;11.27;88.75
79067;BME280;68470;50.224;14.348;2023-04-24T07:48:41;98468.03;;;11.38;87.85
79067;BME280;68470;50.224;14.348;2023-04-24T07:51:07;98469.06;;;11.42;86.20
79067;BME280;68470;50.224;14.348;2023-04-24T07:53:36;98480.66;;;11.44;90.01
79067;BME280;68470;50.224;14.348;2023-04-24T07:56:02;98473.06;;;11.55;87.08
79067;BME280;68470;50.224;14.348;2023-04-24T07:58:28;98474.03;;;11.45;86.46
79067;BME280;68470;50.224;14.348;2023-04-24T08:00:53;98470.09;;;11.27;88.15
79067;BME280;68470;50.224;14.348;2023-04-24T08:03:20;98465.34;;;11.33;87.47
79067;BME280;68470;50.224;14.348;2023-04-24T08:05:47;98471.22;;;11.26;89.06
79067;BME280;68470;50.224;14.348;2023-04-24T08:08:13;98478.22;;;11.13;88.26
79067;BME280;68470;50.224;14.348;2023-04-24T08:10:39;98469.75;;;11.05;88.24
79067;BME280;68470;50.224;14.348;2023-04-24T08:13:05;98477.03;;;11.20;89.16
79067;BME280;68470;50.224;14.348;2023-04-24T08:15:30;98470.50;;;11.15;89.08
79067;BME280;68470;50.224;14.348;2023-04-24T08:17:56;98468.13;;;11.04;88.31
79067;BME280;68470;50.224;14.348;2023-04-24T08:20:22;98455.69;;;11.06;88.86
79067;BME280;68470;50.224;14.348;2023-04-24T08:22:48;98466.72;;;11.06;89.99
79067;BME280;68470;50.224;14.348;2023-04-24T08:25:14;98459.63;;;11.00;89.41
79067;BME280;68470;50.224;14.348;2023-04-24T08:27:40;98467.81;;;11.05;90.11
79067;BME280;68470;50.224;14.348;2023-04-24T08:30:07;98467.66;;;10.97;89.19
79067;BME280;68470;50.224;14.348;2023-04-24T08:32:32;98467.88;;;11.00;89.40
79067;BME280;68470;50.224;14.348;2023-04-24T08:34:59;98472.28;;;11.01;89.51
79067;BME280;68470;50.224;14.348;2023-04-24T08:37:26;98473.84;;;11.07;89.21
79067;BME280;68470;50.224;14.348;2023-04-24T08:39:52;98473.84;;;11.07;89.12
79067;BME280;68470;50.224;14.348;2023-04-24T08:42:19;98463.44;;;11.04;88.92
79067;BME280;68470;50.224;14.348;2023-04-24T08:44:46;98467.44;;;11.17;89.34
79067;BME280;68470;50.224;14.348;2023-04-24T08:47:15;98486.78;;;11.36;88.88
79067;BME280;68470;50.224;14.348;2023-04-24T08:49:41;98488.63;;;11.45;86.37
79067;BME280;68470;50.224;14.348;2023-04-24T08:52:08;98481.81;;;11.62;87.24
79067;BME280;68470;50.224;14.348;2023-04-24T08:54:35;98490.44;;;11.55;86.16
79067;BME280;68470;50.224;14.348;2023-04-24T08:57:01;98494.47;;;11.39;85.86
79067;BME280;68470;50.224;14.348;2023-04-24T08:59:30;98485.75;;;11.32;87.27
79067;BME280;68470;50.224;14.348;2023-04-24T09:01:57;98480.47;;;11.35;87.94
79067;BME280;68470;50.224;14.348;2023-04-24T09:04:24;98487.78;;;11.21;87.01
79067;BME280;68470;50.224;14.348;2023-04-24T09:06:52;98478.00;;;11.10;86.85
79067;BME280;68470;50.224;14.348;2023-04-24T09:09:21;98490.22;;;11.23;87.61
79067;BME280;68470;50.224;14.348;2023-04-24T09:11:49;98476.47;;;11.23;87.45
79067;BME280;68470;50.224;14.348;2023-04-24T09:14:15;98486.16;;;11.44;86.36
79067;BME280;68470;50.224;14.348;2023-04-24T09:16:42;98489.91;;;11.53;87.00
79067;BME280;68470;50.224;14.348;2023-04-24T09:19:08;98471.84;;;11.66;87.29
79067;BME280;68470;50.224;14.348;2023-04-24T09:21:35;98486.81;;;11.84;84.17
79067;BME280;68470;50.224;14.348;2023-04-24T09:24:03;98489.97;;;11.96;83.41
79067;BME280;68470;50.224;14.348;2023-04-24T09:26:30;98491.00;;;12.00;84.58
79067;BME280;68470;50.224;14.348;2023-04-24T09:28:59;98480.97;;;12.28;83.36
79067;BME280;68470;50.224;14.348;2023-04-24T09:31:28;98478.19;;;12.47;83.79
79067;BME280;68470;50.224;14.348;2023-04-24T09:33:59;98468.97;;;12.70;80.88
79067;BME280;68470;50.224;14.348;2023-04-24T09:36:31;98475.97;;;12.81;82.06
79067;BME280;68470;50.224;14.348;2023-04-24T09:39:00;98469.16;;;13.06;80.41
79067;BME280;68470;50.224;14.348;2023-04-24T09:41:26;98458.88;;;13.12;80.21
79067;BME280;68470;50.224;14.348;2023-04-24T09:43:54;98458.19;;;12.87;79.96
79067;BME280;68470;50.224;14.348;2023-04-24T09:46:20;98449.81;;;12.92;81.42
79067;BME280;68470;50.224;14.348;2023-04-24T09:48:50;98460.25;;;13.28;79.22
79067;BME280;68470;50.224;14.348;2023-04-24T09:51:15;98447.25;;;13.56;77.59
79067;BME280;68470;50.224;14.348;2023-04-24T09:53:46;98453.47;;;13.75;77.97
79067;BME280;68470;50.224;14.348;2023-04-24T09:56:12;98452.06;;;14.28;72.84
79067;BME280;68470;50.224;14.348;2023-04-24T09:58:39;98439.44;;;14.22;74.82
79067;BME280;68470;50.224;14.348;2023-04-24T10:01:08;98448.06;;;13.70;75.09
79067;BME280;68470;50.224;14.348;2023-04-24T10:03:34;98439.78;;;14.42;73.75
79067;BME280;68470;50.224;14.348;2023-04-24T10:06:02;98428.28;;;14.94;70.39
79067;BME280;68470;50.224;14.348;2023-04-24T10:08:37;98430.81;;;15.44;68.69
79067;BME280;68470;50.224;14.348;2023-04-24T10:11:03;98424.97;;;16.28;67.08
79067;BME280;68470;50.224;14.348;2023-04-24T10:13:30;98432.44;;;17.05;63.55
79067;BME280;68470;50.224;14.348;2023-04-24T10:15:56;98417.66;;;17.60;59.20
79067;BME280;68470;50.224;14.348;2023-04-24T10:18:26;98414.91;;;17.90;60.37
79067;BME280;68470;50.224;14.348;2023-04-24T10:20:53;98410.38;;;17.47;56.11
79067;BME280;68470;50.224;14.348;2023-04-24T10:23:20;98407.50;;;16.71;58.14
79067;BME280;68470;50.224;14.348;2023-04-24T10:25:48;98430.66;;;16.92;59.12
79067;BME280;68470;50.224;14.348;2023-04-24T10:28:15;98425.25;;;18.10;52.17
79067;BME280;68470;50.224;14.348;2023-04-24T10:30:43;98415.44;;;18.33;50.74
79067;BME280;68470;50.224;14.348;2023-04-24T10:33:09;98412.81;;;17.87;54.44
79067;BME280;68470;50.224;14.348;2023-04-24T10:35:42;98415.53;;;17.66;53.53
79067;BME280;68470;50.224;14.348;2023-04-24T10:38:14;98435.28;;;16.53;55.93
79067;BME280;68470;50.224;14.348;2023-04-24T10:40:42;98432.16;;;16.12;57.59
79067;BME280;68470;50.224;14.348;2023-04-24T10:43:09;98427.09;;;16.66;59.20
79067;BME280;68470;50.224;14.348;2023-04-24T10:45:39;98426.25;;;17.00;57.56
79067;BME280;68470;50.224;14.348;2023-04-24T10:48:07;98432.19;;;16.81;58.30
79067;BME280;68470;50.224;14.348;2023-04-24T10:50:47;98414.84;;;16.58;56.32
79067;BME280;68470;50.224;14.348;2023-04-24T10:53:20;98416.97;;;16.44;58.88
79067;BME280;68470;50.224;14.348;2023-04-24T10:58:45;98412.72;;;16.81;55.77
79067;BME280;68470;50.224;14.348;2023-04-24T11:01:31;98421.53;;;16.66;56.54
79067;BME280;68470;50.224;14.348;2023-04-24T11:04:01;98411.22;;;18.27;52.90
79067;BME280;68470;50.224;14.348;2023-04-24T11:06:34;98394.91;;;18.17;49.63
79067;BME280;68470;50.224;14.348;2023-04-24T11:09:05;98397.34;;;18.81;49.76
79067;BME280;68470;50.224;14.348;2023-04-24T11:11:32;98405.59;;;18.90;49.01
79067;BME280;68470;50.224;14.348;2023-04-24T11:16:32;98401.44;;;20.98;41.03
79067;BME280;68470;50.224;14.348;2023-04-24T11:19:17;98405.09;;;20.19;44.26
79067;BME280;68470;50.224;14.348;2023-04-24T11:21:57;98414.94;;;19.88;42.80
79067;BME280;68470;50.224;14.348;2023-04-24T11:24:27;98417.81;;;20.16;41.07
79067;BME280;68470;50.224;14.348;2023-04-24T11:32:26;98412.84;;;19.73;44.62
79067;BME280;68470;50.224;14.348;2023-04-24T11:37:23;98414.44;;;17.11;50.48
79067;BME280;68470;50.224;14.348;2023-04-24T11:39:51;98409.78;;;16.17;53.99
79067;BME280;68470;50.224;14.348;2023-04-24T11:42:18;98408.00;;;16.38;54.49
79067;BME280;68470;50.224;14.348;2023-04-24T11:44:45;98413.22;;;16.74;54.14
79067;BME280;68470;50.224;14.348;2023-04-24T11:47:12;98420.25;;;16.72;53.28
79067;BME280;68470;50.224;14.348;2023-04-24T11:49:38;98400.31;;;16.52;54.04
79067;BME280;68470;50.224;14.348;2023-04-24T11:52:05;98401.81;;;16.33;54.39
79067;BME280;68470;50.224;14.348;2023-04-24T11:54:31;98411.38;;;16.96;52.47
79067;BME280;68470;50.224;14.348;2023-04-24T11:56:56;98383.78;;;17.29;52.32
79067;BME280;68470;50.224;14.348;2023-04-24T11:59:23;98404.50;;;17.49;53.42
79067;BME280;68470;50.224;14.348;2023-04-24T12:01:49;98392.38;;;17.06;53.46
79067;BME280;68470;50.224;14.348;2023-04-24T12:04:17;98408.16;;;17.32;53.53
79067;BME280;68470;50.224;14.348;2023-04-24T12:07:04;98408.91;;;17.50;51.92
79067;BME280;68470;50.224;14.348;2023-04-24T12:09:44;98404.06;;;16.82;55.07
79067;BME280;68470;50.224;14.348;2023-04-24T12:12:16;98414.69;;;16.72;54.68
79067;BME280;68470;50.224;14.348;2023-04-24T12:14:44;98415.16;;;16.57;55.46
79067;BME280;68470;50.224;14.348;2023-04-24T12:17:09;98399.00;;;16.59;53.05
79067;BME280;68470;50.224;14.348;2023-04-24T12:19:36;98393.66;;;17.18;52.87
79067;BME280;68470;50.224;14.348;2023-04-24T12:22:06;98395.88;;;17.71;51.82
79067;BME280;68470;50.224;14.348;2023-04-24T12:24:32;98398.44;;;18.06;50.65
79067;BME280;68470;50.224;14.348;2023-04-24T12:26:58;98392.53;;;18.28;50.23
79067;BME280;68470;50.224;14.348;2023-04-24T12:29:24;98388.44;;;18.46;47.17
79067;BME280;68470;50.224;14.348;2023-04-24T12:31:51;98402.13;;;17.97;47.22
79067;BME280;68470;50.224;14.348;2023-04-24T12:34:21;98398.84;;;17.66;48.46
79067;BME280;68470;50.224;14.348;2023-04-24T12:36:48;98396.81;;;18.25;47.76
79067;BME280;68470;50.224;14.348;2023-04-24T12:39:17;98391.06;;;17.80;48.27
79067;BME280;68470;50.224;14.348;2023-04-24T12:41:57;98407.38;;;17.23;49.38
79067;BME280;68470;50.224;14.348;2023-04-24T12:44:31;98409.81;;;16.69;51.10
79067;BME280;68470;50.224;14.348;2023-04-24T12:46:57;98396.78;;;17.16;49.94
79067;BME280;68470;50.224;14.348;2023-04-24T12:49:23;98404.50;;;17.49;50.53
79067;BME280;68470;50.224;14.348;2023-04-24T12:51:51;98413.41;;;17.25;50.57
79067;BME280;68470;50.224;14.348;2023-04-24T12:54:17;98391.41;;;17.02;52.15
79067;BME280;68470;50.224;14.348;2023-04-24T12:56:43;98395.00;;;17.50;52.42
79067;BME280;68470;50.224;14.348;2023-04-24T12:59:10;98398.94;;;17.49;52.81
79067;BME280;68470;50.224;14.348;2023-04-24T13:01:36;98403.09;;;16.18;56.10
79067;BME280;68470;50.224;14.348;2023-04-24T13:04:02;98394.09;;;16.55;55.51
79067;BME280;68470;50.224;14.348;2023-04-24T13:06:27;98374.31;;;16.83;54.77
79067;BME280;68470;50.224;14.348;2023-04-24T13:08:55;98396.22;;;16.50;56.13
79067;BME280;68470;50.224;14.348;2023-04-24T13:11:23;98364.84;;;17.22;54.11
79067;BME280;68470;50.224;14.348;2023-04-24T13:13:50;98373.38;;;17.85;52.61
79067;BME280;68470;50.224;14.348;2023-04-24T13:16:16;98369.03;;;17.66;51.19